createdAt,value
2023-03-04T00:02:56.443Z,20.5
2023-03-04T00:05:58.302Z,18.2
2023-03-04T00:09:00.377Z,19.3
2023-03-04T00:12:02.406Z,18.8
2023-03-04T00:15:04.218Z,20.2
2023-03-04T00:18:06.208Z,25.2
2023-03-04T00:21:08.152Z,22.6
2023-03-04T00:24:10.128Z,24.4
2023-03-04T00:27:12.065Z,20
2023-03-04T00:30:14.083Z,22.9
2023-03-04T00:33:15.976Z,20.3
2023-03-04T00:36:17.932Z,20
2023-03-04T00:39:19.900Z,21.4
2023-03-04T00:42:21.869Z,22.6
2023-03-04T00:45:23.836Z,22.3
2023-03-04T00:48:25.834Z,22
2023-03-04T00:51:27.820Z,23
2023-03-04T00:54:29.796Z,23.3
2023-03-04T00:57:31.749Z,27.9
2023-03-04T01:00:33.704Z,28.8
2023-03-04T01:03:35.667Z,29.4
2023-03-04T01:06:37.608Z,30.6
2023-03-04T01:09:39.572Z,28.5
2023-03-04T01:12:41.544Z,28.8
2023-03-04T01:15:43.491Z,27.8
2023-03-04T01:18:45.446Z,29.6
2023-03-04T01:21:47.439Z,32.3
2023-03-04T01:24:49.375Z,28.5
2023-03-04T01:27:51.322Z,30
2023-03-04T01:30:53.356Z,35.7
2023-03-04T01:33:55.281Z,32.1
2023-03-04T01:36:57.207Z,35.8
2023-03-04T01:39:59.426Z,36.5
2023-03-04T01:43:01.212Z,34.2
2023-03-04T01:46:03.164Z,32.2
2023-03-04T01:49:05.144Z,31.8
2023-03-04T01:52:07.027Z,34.8
2023-03-04T01:55:08.976Z,34.7
2023-03-04T01:58:10.941Z,39.3
2023-03-04T02:01:12.942Z,35.5
2023-03-04T02:04:14.922Z,37
2023-03-04T02:07:16.836Z,39.8
2023-03-04T02:10:18.807Z,32.9
2023-03-04T02:13:20.794Z,39
2023-03-04T02:16:22.769Z,33.9
2023-03-04T02:19:24.703Z,36.9
2023-03-04T02:22:26.690Z,34.1
2023-03-04T02:25:28.641Z,38.1
2023-03-04T02:28:30.610Z,36.1
2023-03-04T02:31:32.726Z,34.9
2023-03-04T02:34:34.566Z,34.3
2023-03-04T02:37:36.477Z,32.3
2023-03-04T02:40:38.460Z,35.2
2023-03-04T02:43:40.404Z,35.7
2023-03-04T02:46:42.411Z,35.3
2023-03-04T02:49:44.474Z,39
2023-03-04T02:52:46.330Z,32.6
2023-03-04T02:55:48.294Z,36.8
2023-03-04T02:58:50.212Z,31.7
2023-03-04T03:01:52.216Z,33.8
2023-03-04T03:04:54.146Z,36.7
2023-03-04T03:07:56.072Z,34.6
2023-03-04T03:10:58.054Z,35
2023-03-04T03:14:00.033Z,33.1
2023-03-04T03:17:01.981Z,32.6
2023-03-04T03:20:03.942Z,36.4
2023-03-04T03:23:05.948Z,41.2
2023-03-04T03:26:07.949Z,36.2
2023-03-04T03:29:09.884Z,38.2
2023-03-04T03:32:11.900Z,30.5
2023-03-04T03:35:13.759Z,35.4
2023-03-04T03:38:15.712Z,35.3
2023-03-04T03:41:17.675Z,30.9
2023-03-04T03:44:19.610Z,36.1
2023-03-04T03:47:21.572Z,33.8
2023-03-04T03:50:23.542Z,33.6
2023-03-04T03:53:25.492Z,29.1
2023-03-04T03:56:27.465Z,28.6
2023-03-04T03:59:29.421Z,28.7
2023-03-04T04:02:31.527Z,28.9
2023-03-04T04:05:33.364Z,26
2023-03-04T04:08:35.338Z,34.9
2023-03-04T04:11:37.302Z,42.5
2023-03-04T04:14:39.227Z,44.9
2023-03-04T04:17:41.172Z,37
2023-03-04T04:20:43.188Z,37.3
2023-03-04T04:23:45.108Z,39.1
2023-03-04T04:26:47.077Z,37.7
2023-03-04T04:29:49.029Z,39.1
2023-03-04T04:32:50.972Z,39
2023-03-04T04:35:52.991Z,39.8
2023-03-04T04:38:54.901Z,43.9
2023-03-04T04:41:56.889Z,42.9
2023-03-04T04:44:58.837Z,54.2
2023-03-04T04:48:00.796Z,41.5
2023-03-04T04:51:02.725Z,48.8
2023-03-04T04:54:04.732Z,50.5
2023-03-04T04:57:06.692Z,44.1
2023-03-04T05:00:08.659Z,43.7
2023-03-04T05:03:10.683Z,37.3
2023-03-04T05:06:12.554Z,39.9
2023-03-04T05:09:14.505Z,42.1
2023-03-04T05:12:16.539Z,44.8
2023-03-04T05:15:18.502Z,40.9
2023-03-04T05:18:20.468Z,40.8
2023-03-04T05:21:22.451Z,39.2
2023-03-04T05:24:24.417Z,44.9
2023-03-04T05:27:26.388Z,45.3
2023-03-04T05:30:28.340Z,43.3
2023-03-04T05:33:30.252Z,41.5
2023-03-04T05:36:32.252Z,41.9
2023-03-04T05:39:34.219Z,44.8
2023-03-04T05:42:36.193Z,40.3
2023-03-04T05:45:38.128Z,47.3
2023-03-04T05:48:40.070Z,38.5
2023-03-04T05:51:42.038Z,36.7
2023-03-04T05:54:44.024Z,38.7
2023-03-04T05:57:45.976Z,40
2023-03-04T06:00:47.949Z,38.9
2023-03-04T06:03:49.920Z,36.2
2023-03-04T06:06:51.817Z,38.8
2023-03-04T06:09:53.780Z,38.1
2023-03-04T06:12:55.737Z,45.6
2023-03-04T06:15:57.778Z,37.5
2023-03-04T06:18:59.697Z,35.6
2023-03-04T06:22:01.658Z,39.8
2023-03-04T06:25:03.610Z,45.2
2023-03-04T06:28:05.575Z,43.7
2023-03-04T06:31:07.571Z,49.8
2023-03-04T06:34:09.634Z,40.1
2023-03-04T06:37:11.448Z,48
2023-03-04T06:40:13.389Z,44.5
2023-03-04T06:43:15.361Z,48.3
2023-03-04T06:46:17.339Z,40.5
2023-03-04T06:49:19.316Z,45.1
2023-03-04T06:52:21.271Z,39.7
2023-03-04T06:55:23.228Z,42.4
2023-03-04T06:58:25.224Z,40.9
2023-03-04T07:01:27.161Z,40.8
2023-03-04T07:04:29.122Z,41.1
2023-03-04T07:07:31.321Z,42.6
2023-03-04T07:10:33.064Z,47.6
2023-03-04T07:13:35.053Z,46.2
2023-03-04T07:16:37.040Z,40.1
2023-03-04T07:19:38.944Z,45.5
2023-03-04T07:22:40.917Z,37.9
2023-03-04T07:25:42.938Z,37.5
2023-03-04T07:28:44.829Z,44.6
2023-03-04T07:31:46.868Z,41.7
2023-03-04T07:34:48.764Z,43.5
2023-03-04T07:37:50.698Z,42
2023-03-04T07:40:52.649Z,37.1
2023-03-04T07:43:54.618Z,36.8
2023-03-04T07:46:56.600Z,35.2
2023-03-04T07:49:58.553Z,38.5
2023-03-04T07:53:00.504Z,43.7
2023-03-04T07:56:02.746Z,36.9
2023-03-04T07:59:04.463Z,39.6
2023-03-04T08:02:06.495Z,37.2
2023-03-04T08:05:08.381Z,46
2023-03-04T08:08:10.314Z,38.9
2023-03-04T08:11:12.267Z,35.9
2023-03-04T08:14:14.225Z,37.6
2023-03-04T08:17:16.185Z,38.9
2023-03-04T08:20:18.151Z,33
2023-03-04T08:23:20.115Z,40.6
2023-03-04T08:26:22.123Z,40.7
2023-03-04T08:29:24.045Z,37.4
2023-03-04T08:32:26.161Z,35.3
2023-03-04T08:35:27.978Z,34.7
2023-03-04T08:38:30.025Z,40.5
2023-03-04T08:41:31.994Z,44.1
2023-03-04T08:44:34.014Z,38.9
2023-03-04T08:47:35.928Z,40.8
2023-03-04T08:50:37.925Z,44.1
2023-03-04T08:53:39.881Z,32.7
2023-03-04T08:56:42.008Z,32
2023-03-04T08:59:43.812Z,32.6
2023-03-04T09:02:45.766Z,35.7
2023-03-04T09:05:47.731Z,36.1
2023-03-04T09:08:49.707Z,32.4
2023-03-04T09:11:51.692Z,29.5
2023-03-04T09:15:08.588Z,28.7
2023-03-04T09:17:55.750Z,27.8
2023-03-04T09:20:57.684Z,29.1
2023-03-04T09:23:59.606Z,30.1
2023-03-04T09:27:01.610Z,29
2023-03-04T09:30:03.566Z,31.2
2023-03-04T09:33:05.593Z,26.2
2023-03-04T09:36:07.552Z,27.2
2023-03-04T09:39:09.514Z,31.4
2023-03-04T09:42:11.455Z,33.1
2023-03-04T09:45:13.535Z,32.4
2023-03-04T09:48:15.501Z,31.3
2023-03-04T09:51:17.487Z,33.9
2023-03-04T09:54:19.500Z,27.4
2023-03-04T09:57:21.532Z,36.4
2023-03-04T10:00:23.552Z,34.2
2023-03-04T10:03:25.529Z,34.5
2023-03-04T10:06:27.548Z,29.9
2023-03-04T10:09:29.580Z,28.3
2023-03-04T10:12:31.544Z,27.6
2023-03-04T10:15:33.661Z,27.7
2023-03-04T10:18:35.688Z,35.5
2023-03-04T10:21:37.674Z,29.9
2023-03-04T10:24:39.656Z,28.1
2023-03-04T10:27:47.134Z,25.9
2023-03-04T10:30:46.943Z,23.3
2023-03-04T10:33:49.099Z,26.8
2023-03-04T10:36:53.969Z,30.9
2023-03-04T10:39:56.191Z,23
2023-03-04T10:43:11.593Z,22.3
2023-03-04T10:46:06.961Z,26.2
2023-03-04T10:49:11.182Z,21.5
2023-03-04T10:52:11.128Z,22
2023-03-04T10:55:16.121Z,20
2023-03-04T10:58:26.587Z,17.1
2023-03-04T11:01:29.467Z,21.4
2023-03-04T11:04:34.593Z,14.5
2023-03-04T11:07:52.412Z,17.7
2023-03-04T11:10:39.040Z,13.9
2023-03-04T11:13:44.236Z,14.3
2023-03-04T11:16:48.121Z,17.4
2023-03-04T11:19:51.691Z,14.2
2023-03-04T11:22:53.850Z,12.1
2023-03-04T11:25:55.887Z,14.4
2023-03-04T11:28:57.878Z,12.3
2023-03-04T11:31:59.935Z,11.7
2023-03-04T11:35:01.983Z,12.1
2023-03-04T11:38:06.169Z,10.3
2023-03-04T11:41:06.011Z,14.5
2023-03-04T11:44:07.985Z,12.8
2023-03-04T11:47:09.950Z,13.5
2023-03-04T11:50:12.034Z,9.6
2023-03-04T11:53:14.207Z,14.2
2023-03-04T11:56:16.035Z,11.3
2023-03-04T11:59:18.105Z,11.3
2023-03-04T12:02:20.415Z,10.1
2023-03-04T12:05:22.544Z,13
2023-03-04T12:08:24.027Z,8.9
2023-03-04T12:11:26.020Z,12
2023-03-04T12:14:28.000Z,10.8
2023-03-04T12:17:29.956Z,10.5
2023-03-04T12:20:31.952Z,8.5
2023-03-04T12:23:33.928Z,8.6
2023-03-04T12:26:36.504Z,11.5
2023-03-04T12:29:38.426Z,8.6
2023-03-04T12:32:40.596Z,11.9
2023-03-04T12:35:42.625Z,15.3
2023-03-04T12:38:44.539Z,9.2
2023-03-04T12:41:46.481Z,11.7
2023-03-04T12:44:48.442Z,8.6
2023-03-04T12:47:50.411Z,6.9
2023-03-04T12:50:52.488Z,7.8
2023-03-04T12:53:54.437Z,5.9
2023-03-04T12:56:56.497Z,10
2023-03-04T12:59:58.479Z,10.1
2023-03-04T13:03:00.915Z,7.6
2023-03-04T13:06:02.396Z,7.6
2023-03-04T13:09:04.597Z,9.6
2023-03-04T13:12:06.506Z,6.2
2023-03-04T13:15:08.713Z,5.5
2023-03-04T13:18:10.667Z,5.9
2023-03-04T13:21:12.663Z,6.1
2023-03-04T13:24:14.598Z,7.9
2023-03-04T13:27:16.583Z,6.3
2023-03-04T13:30:18.580Z,7.1
2023-03-04T13:33:20.568Z,13.1
2023-03-04T13:36:22.506Z,12.3
2023-03-04T13:39:24.584Z,11.6
2023-03-04T13:42:26.573Z,8.6
2023-03-04T13:45:28.597Z,12
2023-03-04T13:48:30.554Z,7.3
2023-03-04T13:51:32.533Z,9.6
2023-03-04T13:54:34.552Z,7.8
2023-03-04T13:57:36.468Z,9.8
2023-03-04T14:00:38.447Z,8.7
2023-03-04T14:03:40.415Z,8.8
2023-03-04T14:06:42.364Z,7
2023-03-04T14:09:44.349Z,7.2
2023-03-04T14:12:46.311Z,11
2023-03-04T14:15:48.260Z,7.7
2023-03-04T14:18:50.218Z,8.9
2023-03-04T14:21:52.193Z,9.8
2023-03-04T14:24:54.277Z,7.8
2023-03-04T14:27:56.213Z,8.3
2023-03-04T14:30:58.179Z,9.3
2023-03-04T14:34:00.224Z,11.3
2023-03-04T14:37:02.177Z,7.4
2023-03-04T14:40:04.117Z,6.9
2023-03-04T14:43:06.104Z,12.5
2023-03-04T14:46:08.155Z,13.5
2023-03-04T14:49:10.024Z,23.7
2023-03-04T14:52:12.024Z,26.4
2023-03-04T14:55:13.988Z,35.2
2023-03-04T14:58:15.998Z,17.6
2023-03-04T15:01:17.972Z,13.2
2023-03-04T15:04:19.953Z,10.8
2023-03-04T15:07:21.930Z,11.7
2023-03-04T15:10:23.852Z,9.8
2023-03-04T15:13:25.797Z,13.2
2023-03-04T15:16:27.930Z,11.6
2023-03-04T15:19:29.760Z,10.9
2023-03-04T15:22:31.847Z,6
2023-03-04T15:25:33.740Z,7.1
2023-03-04T15:28:35.748Z,9.3
2023-03-04T15:31:37.694Z,8
2023-03-04T15:34:39.629Z,6
2023-03-04T15:37:41.603Z,8.7
2023-03-04T15:40:43.669Z,6.9
2023-03-04T15:43:45.628Z,9.2
2023-03-04T15:46:47.644Z,7.1
2023-03-04T15:49:49.542Z,6.9
2023-03-04T15:52:51.599Z,5.8
2023-03-04T15:55:53.600Z,6.3
2023-03-04T15:58:55.519Z,9.2
2023-03-04T16:01:57.541Z,7
2023-03-04T16:04:59.608Z,5.6
2023-03-04T16:08:01.459Z,5.9
2023-03-04T16:11:03.397Z,6.7
2023-03-04T16:14:05.365Z,7.9
2023-03-04T16:17:07.325Z,5.6
2023-03-04T16:20:09.311Z,5.9
2023-03-04T16:23:11.456Z,5.5
2023-03-04T16:26:13.238Z,6
2023-03-04T16:29:15.213Z,7.2
2023-03-04T16:32:17.205Z,8.3
2023-03-04T16:35:19.208Z,11.2
2023-03-04T16:38:21.115Z,11.1
2023-03-04T16:41:23.100Z,10.1
2023-03-04T16:44:25.017Z,11
2023-03-04T16:47:27.072Z,8
2023-03-04T16:50:28.982Z,9.6
2023-03-04T16:53:30.940Z,12.9
2023-03-04T16:56:33.177Z,10.4
2023-03-04T16:59:34.850Z,16.2
2023-03-04T17:02:36.918Z,12.2
2023-03-04T17:05:38.852Z,11.1
2023-03-04T17:08:40.786Z,12.8
2023-03-04T17:11:42.850Z,12.6
2023-03-04T17:14:44.763Z,13.2
2023-03-04T17:17:46.740Z,14.3
2023-03-04T17:20:48.696Z,18
2023-03-04T17:23:50.645Z,21.3
2023-03-04T17:26:52.819Z,20.2
2023-03-04T17:29:54.580Z,28.5
2023-03-04T17:32:56.575Z,21.3
2023-03-04T17:35:58.571Z,20.3
2023-03-04T17:39:00.492Z,23.3
2023-03-04T17:42:05.347Z,21.4
2023-03-04T17:45:07.411Z,20.4
2023-03-04T17:48:09.314Z,20.5
2023-03-04T17:51:11.287Z,19.4
2023-03-04T17:54:13.390Z,18
2023-03-04T17:57:15.347Z,16.1
2023-03-04T18:00:17.327Z,16.9
2023-03-04T18:03:19.278Z,22.8
2023-03-04T18:06:21.234Z,21.7
2023-03-04T18:09:23.151Z,21.4
2023-03-04T18:12:25.229Z,20.6
2023-03-04T18:15:27.140Z,18
2023-03-04T18:18:29.078Z,23.1
2023-03-04T18:21:31.020Z,32.9
2023-03-04T18:24:33.202Z,18
2023-03-04T18:27:34.955Z,21.4
2023-03-04T18:30:36.936Z,24.3
2023-03-04T18:33:38.924Z,17.7
2023-03-04T18:36:40.904Z,24.2
2023-03-04T18:39:42.856Z,21
2023-03-04T18:42:44.789Z,18.2
2023-03-04T18:45:46.779Z,20.4
2023-03-04T18:48:48.733Z,18.1
2023-03-04T18:51:50.707Z,17.7
2023-03-04T18:54:52.696Z,15.2
2023-03-04T18:57:54.636Z,17.4
2023-03-04T19:00:56.613Z,18.8
2023-03-04T19:03:58.611Z,17.6
2023-03-04T19:07:00.547Z,33
2023-03-04T19:10:02.485Z,19.4
2023-03-04T19:13:04.492Z,19
2023-03-04T19:16:06.449Z,19.9
2023-03-04T19:19:08.436Z,19.7
2023-03-04T19:22:10.443Z,14.7
2023-03-04T19:25:12.347Z,17.5
2023-03-04T19:28:14.301Z,16.8
2023-03-04T19:31:16.264Z,12.4
2023-03-04T19:34:18.228Z,14.4
2023-03-04T19:37:20.190Z,15.2
2023-03-04T19:40:22.185Z,17
2023-03-04T19:43:24.124Z,16
2023-03-04T19:46:26.099Z,20.6
2023-03-04T19:49:28.127Z,16.5
2023-03-04T19:52:30.013Z,15.9
2023-03-04T19:55:31.999Z,16.3
2023-03-04T19:58:33.940Z,12.8
2023-03-04T20:01:35.985Z,14.4
2023-03-04T20:04:37.972Z,18.9
2023-03-04T20:07:39.838Z,23
2023-03-04T20:10:41.860Z,22.2
2023-03-04T20:13:43.781Z,27.7
2023-03-04T20:16:45.769Z,17.9
2023-03-04T20:19:47.748Z,17.7
2023-03-04T20:22:49.691Z,17.7
2023-03-04T20:25:51.684Z,18.9
2023-03-04T20:28:53.624Z,17.9
2023-03-04T20:31:55.584Z,15.9
2023-03-04T20:34:57.570Z,16.9
2023-03-04T20:37:59.500Z,15.4
2023-03-04T20:41:01.478Z,17
2023-03-04T20:44:03.443Z,14.7
2023-03-04T20:47:05.406Z,13.9
2023-03-04T20:50:07.377Z,11.7
2023-03-04T20:53:09.339Z,14
2023-03-04T20:56:11.280Z,18.6
2023-03-04T20:59:13.245Z,16.4
2023-03-04T21:02:15.199Z,18.6
2023-03-04T21:05:17.183Z,13.9
2023-03-04T21:08:19.201Z,14.7
2023-03-04T21:11:21.096Z,17.8
2023-03-04T21:14:23.101Z,14.6
2023-03-04T21:17:25.053Z,13.3
2023-03-04T21:20:26.989Z,12.5
2023-03-04T21:23:29.002Z,16.1
2023-03-04T21:26:30.939Z,14.4
2023-03-04T21:29:32.906Z,13.7
2023-03-04T21:32:34.888Z,12.2
2023-03-04T21:35:36.903Z,16.2
2023-03-04T21:38:39.550Z,12.6
2023-03-04T21:41:40.771Z,13.7
2023-03-04T21:44:49.437Z,13.9
2023-03-04T21:47:44.691Z,11.9
2023-03-04T21:50:46.677Z,12
2023-03-04T21:53:48.644Z,16.1
2023-03-04T21:56:50.566Z,11.6
2023-03-04T21:59:52.534Z,12.3
2023-03-04T22:02:54.539Z,11.6
2023-03-04T22:05:56.496Z,16.4
2023-03-04T22:08:58.454Z,16.5
2023-03-04T22:12:00.392Z,12.9
2023-03-04T22:15:02.393Z,18.1
2023-03-04T22:18:04.519Z,12.2
2023-03-04T22:21:06.303Z,15.4
2023-03-04T22:24:08.296Z,16.5
2023-03-04T22:27:10.242Z,14
2023-03-04T22:30:12.179Z,13
2023-03-04T22:33:14.126Z,16.7
2023-03-04T22:36:16.134Z,12.6
2023-03-04T22:39:18.062Z,13.2
2023-03-04T22:42:20.001Z,17.2
2023-03-04T22:45:22.035Z,13.8
2023-03-04T22:48:23.949Z,17
2023-03-04T22:51:25.935Z,16.4
2023-03-04T22:54:27.862Z,16.7
2023-03-04T22:57:29.835Z,14.6
2023-03-04T23:00:31.799Z,19.4
2023-03-04T23:03:33.764Z,15.2
2023-03-04T23:06:35.716Z,16.3
2023-03-04T23:09:37.701Z,12.9
2023-03-04T23:12:39.662Z,16.7
2023-03-04T23:15:41.643Z,13.5
2023-03-04T23:18:43.604Z,15.7
2023-03-04T23:21:45.589Z,13.4
2023-03-04T23:24:47.519Z,14.5
2023-03-04T23:27:49.483Z,13.4
2023-03-04T23:30:51.506Z,15.7
2023-03-04T23:33:53.436Z,12.6
2023-03-04T23:36:55.368Z,15.4
2023-03-04T23:39:57.378Z,15.1
2023-03-04T23:42:59.343Z,12.7
2023-03-04T23:46:01.323Z,14.1
2023-03-04T23:49:03.264Z,14
2023-03-04T23:52:05.446Z,11.6
2023-03-04T23:55:07.179Z,12.7
2023-03-04T23:58:09.140Z,10.3
